Time;durP1;ratioP1;P1;durP2;ratioP2;P2;SDS_P1;SDS_P2;PMS_P1;PMS_P2;Temp;Humidity;BMP_temperature;BMP_pressure;BME280_temperature;BME280_humidity;BME280_pressure;Samples;Min_cycle;Max_cycle;Signal;HPM_P1;HPM_P2
2024/01/19 00:02:00;;;;;;;5.07;0.40;;;;;;;;;;5019251;28;20038;-78
2024/01/19 00:04:26;;;;;;;7.82;0.60;;;;;;;;;;5022005;28;20088;-77
2024/01/19 00:06:52;;;;;;;4.68;1.00;;;;;;;;;;5013253;28;20380;-78
2024/01/19 00:09:18;;;;;;;3.10;0.88;;;;;;;;;;5027049;28;20677;-78
2024/01/19 00:11:44;;;;;;;2.55;0.50;;;;;;;;;;5021323;28;20093;-78
2024/01/19 00:14:10;;;;;;;2.97;1.15;;;;;;;;;;5033946;28;20041;-78
2024/01/19 00:16:41;;;;;;;4.82;0.85;;;;;;;;;;5025713;28;20030;-77
2024/01/19 00:19:07;;;;;;;6.32;0.90;;;;;;;;;;5025172;28;20486;-78
2024/01/19 00:21:33;;;;;;;4.40;0.43;;;;;;;;;;5029751;28;20022;-77
2024/01/19 00:23:59;;;;;;;2.60;0.30;;;;;;;;;;5041525;28;20026;-77
2024/01/19 00:26:25;;;;;;;4.65;0.40;;;;;;;;;;5036417;28;20034;-77
2024/01/19 00:28:51;;;;;;;2.78;0.40;;;;;;;;;;5043083;28;20018;-77
2024/01/19 00:31:17;;;;;;;2.08;0.45;;;;;;;;;;5038096;28;20112;-77
2024/01/19 00:33:44;;;;;;;3.88;0.57;;;;;;;;;;5032092;28;20468;-77
2024/01/19 00:36:10;;;;;;;2.92;0.60;;;;;;;;;;5034207;28;20034;-76
2024/01/19 00:38:36;;;;;;;4.13;0.63;;;;;;;;;;5031514;28;20044;-77
2024/01/19 00:41:02;;;;;;;12.32;2.30;;;;;;;;;;5028125;28;20379;-77
2024/01/19 00:43:28;;;;;;;3.92;0.63;;;;;;;;;;5024242;28;20040;-77
2024/01/19 00:45:54;;;;;;;8.43;1.58;;;;;;;;;;5027072;28;20042;-77
2024/01/19 00:48:20;;;;;;;7.80;1.23;;;;;;;;;;5023454;28;20022;-77
2024/01/19 00:50:46;;;;;;;5.65;1.05;;;;;;;;;;5029487;28;20178;-76
2024/01/19 00:53:12;;;;;;;3.70;0.43;;;;;;;;;;5023395;28;20021;-77
2024/01/19 00:55:40;;;;;;;5.20;0.63;;;;;;;;;;5029525;28;20032;-76
2024/01/19 00:58:07;;;;;;;3.53;0.50;;;;;;;;;;5014476;28;20072;-77
2024/01/19 01:00:33;;;;;;;3.63;0.65;;;;;;;;;;5030809;28;20022;-77
2024/01/19 01:02:59;;;;;;;5.60;0.90;;;;;;;;;;5018162;28;20415;-77
2024/01/19 01:05:25;;;;;;;2.78;0.80;;;;;;;;;;5022828;28;20109;-78
2024/01/19 01:07:51;;;;;;;4.65;0.60;;;;;;;;;;5025305;28;20068;-78
2024/01/19 01:10:18;;;;;;;5.15;1.00;;;;;;;;;;5019424;28;20041;-78
2024/01/19 01:12:44;;;;;;;3.55;0.82;;;;;;;;;;5020476;28;20080;-78
2024/01/19 01:15:10;;;;;;;2.50;0.75;;;;;;;;;;5027512;28;20471;-78
2024/01/19 01:17:36;;;;;;;5.15;0.90;;;;;;;;;;5014148;28;20033;-78
2024/01/19 01:20:02;;;;;;;5.13;0.70;;;;;;;;;;5021889;28;20084;-78
2024/01/19 01:22:29;;;;;;;5.28;1.00;;;;;;;;;;5028711;28;20033;-78
2024/01/19 01:24:55;;;;;;;4.82;0.43;;;;;;;;;;5026057;28;20036;-77
2024/01/19 01:27:21;;;;;;;8.57;1.38;;;;;;;;;;5026743;28;20029;-76
2024/01/19 01:29:47;;;;;;;4.40;0.57;;;;;;;;;;5022881;28;20212;-77
2024/01/19 01:32:13;;;;;;;2.65;0.85;;;;;;;;;;5021645;28;20399;-77
2024/01/19 01:34:39;;;;;;;6.05;0.60;;;;;;;;;;5021412;28;20483;-77
2024/01/19 01:37:05;;;;;;;3.50;0.63;;;;;;;;;;5031002;28;20509;-76
2024/01/19 01:39:31;;;;;;;2.70;0.40;;;;;;;;;;5022798;28;20087;-77
2024/01/19 01:41:57;;;;;;;3.63;0.60;;;;;;;;;;5026404;28;20483;-78
2024/01/19 01:44:23;;;;;;;7.88;0.80;;;;;;;;;;5024199;28;20037;-78
2024/01/19 01:46:49;;;;;;;6.50;0.80;;;;;;;;;;5022981;28;20045;-78
2024/01/19 01:49:15;;;;;;;4.03;0.73;;;;;;;;;;5018994;28;20033;-78
2024/01/19 01:51:41;;;;;;;4.82;1.10;;;;;;;;;;5021504;28;20548;-78
2024/01/19 01:54:08;;;;;;;2.67;0.60;;;;;;;;;;5020148;28;20029;-78
2024/01/19 01:56:34;;;;;;;5.93;0.70;;;;;;;;;;5027563;28;20033;-78
2024/01/19 01:59:00;;;;;;;4.30;0.63;;;;;;;;;;5028167;28;20025;-78
2024/01/19 02:01:27;;;;;;;4.68;0.40;;;;;;;;;;5026336;28;21678;-78
2024/01/19 02:03:55;;;;;;;6.00;0.50;;;;;;;;;;5010682;28;20033;-78
2024/01/19 02:06:21;;;;;;;0.55;0.20;;;;;;;;;;5022159;28;20022;-77
2024/01/19 02:08:47;;;;;;;4.00;0.38;;;;;;;;;;5027318;28;20056;-76
2024/01/19 02:11:13;;;;;;;5.03;0.77;;;;;;;;;;5026716;28;20074;-76
2024/01/19 02:13:39;;;;;;;4.10;1.20;;;;;;;;;;5021399;28;20041;-76
2024/01/19 02:16:06;;;;;;;2.00;0.47;;;;;;;;;;5025857;28;20064;-77
2024/01/19 02:18:32;;;;;;;4.78;0.88;;;;;;;;;;5016779;28;20021;-77
2024/01/19 02:20:58;;;;;;;3.47;0.85;;;;;;;;;;5012648;28;20045;-77
2024/01/19 02:23:27;;;;;;;3.40;0.45;;;;;;;;;;5019751;28;20025;-76
2024/01/19 02:25:53;;;;;;;7.78;1.08;;;;;;;;;;5020951;28;20492;-77
2024/01/19 02:28:19;;;;;;;7.00;0.80;;;;;;;;;;5011775;28;20032;-76
2024/01/19 02:30:46;;;;;;;11.80;0.90;;;;;;;;;;5017811;28;20068;-78
2024/01/19 02:33:12;;;;;;;7.03;1.48;;;;;;;;;;5026450;28;20167;-77
2024/01/19 02:35:38;;;;;;;8.15;1.48;;;;;;;;;;5023450;28;20041;-78
2024/01/19 02:38:04;;;;;;;3.53;0.68;;;;;;;;;;5015955;28;20029;-76
2024/01/19 02:40:30;;;;;;;4.75;0.80;;;;;;;;;;5025874;28;20036;-76
2024/01/19 02:42:56;;;;;;;5.78;0.73;;;;;;;;;;5027510;28;20099;-77
2024/01/19 02:45:22;;;;;;;7.00;1.15;;;;;;;;;;5026187;28;20013;-76
2024/01/19 02:47:48;;;;;;;4.78;0.60;;;;;;;;;;5022684;28;20041;-77
2024/01/19 02:50:14;;;;;;;6.75;0.90;;;;;;;;;;5029398;28;20056;-77
2024/01/19 02:52:40;;;;;;;4.78;0.77;;;;;;;;;;5026316;28;20040;-77
2024/01/19 02:55:07;;;;;;;6.10;1.33;;;;;;;;;;5025170;28;20439;-77
2024/01/19 02:57:33;;;;;;;7.07;0.82;;;;;;;;;;5024035;28;20034;-77
2024/01/19 02:59:59;;;;;;;7.32;0.73;;;;;;;;;;5024584;28;20018;-77
2024/01/19 03:02:25;;;;;;;8.48;0.70;;;;;;;;;;5015645;28;20040;-77
2024/01/19 03:04:51;;;;;;;7.00;0.55;;;;;;;;;;5024356;28;20100;-77
2024/01/19 03:07:17;;;;;;;12.57;1.08;;;;;;;;;;5016053;28;20502;-77
2024/01/19 03:09:43;;;;;;;13.52;1.13;;;;;;;;;;5022210;28;20426;-77
2024/01/19 03:12:09;;;;;;;8.80;1.10;;;;;;;;;;5023279;28;20065;-77
2024/01/19 03:14:35;;;;;;;4.70;0.95;;;;;;;;;;5021921;28;20042;-77
2024/01/19 03:17:02;;;;;;;8.07;1.20;;;;;;;;;;5027554;28;20035;-76
2024/01/19 03:19:28;;;;;;;6.63;1.50;;;;;;;;;;5027022;28;20112;-77
2024/01/19 03:21:55;;;;;;;5.25;1.25;;;;;;;;;;5023807;28;20390;-76
2024/01/19 03:24:21;;;;;;;8.35;0.90;;;;;;;;;;5026653;28;20029;-76
2024/01/19 03:26:47;;;;;;;10.20;0.70;;;;;;;;;;5014605;28;20041;-76
2024/01/19 03:29:14;;;;;;;5.72;0.90;;;;;;;;;;5016480;28;20480;-76
2024/01/19 03:31:40;;;;;;;8.75;1.00;;;;;;;;;;5022158;28;20089;-76
2024/01/19 03:34:06;;;;;;;14.65;1.20;;;;;;;;;;5009291;28;20061;-76
2024/01/19 03:36:32;;;;;;;10.05;1.60;;;;;;;;;;5010799;28;20052;-77
2024/01/19 03:38:58;;;;;;;7.95;1.48;;;;;;;;;;5017815;28;20042;-77
2024/01/19 03:41:24;;;;;;;5.45;0.70;;;;;;;;;;5015237;28;20042;-77
2024/01/19 03:43:50;;;;;;;9.98;0.98;;;;;;;;;;5009235;28;20436;-77
2024/01/19 03:46:16;;;;;;;5.85;1.05;;;;;;;;;;5017486;28;20467;-77
2024/01/19 03:48:42;;;;;;;7.95;0.70;;;;;;;;;;5012393;28;20038;-77
2024/01/19 03:51:08;;;;;;;27.85;4.95;;;;;;;;;;5008264;28;20069;-77
2024/01/19 03:53:34;;;;;;;7.07;1.70;;;;;;;;;;5020502;28;20064;-77
2024/01/19 03:56:00;;;;;;;8.38;2.75;;;;;;;;;;5028103;28;20029;-78
2024/01/19 03:58:27;;;;;;;6.00;1.33;;;;;;;;;;5021606;28;20026;-77
2024/01/19 04:00:53;;;;;;;7.38;1.10;;;;;;;;;;5029891;28;20033;-77
2024/01/19 04:03:19;;;;;;;9.05;1.10;;;;;;;;;;5020292;28;20030;-77
2024/01/19 04:05:46;;;;;;;6.57;1.83;;;;;;;;;;5032045;28;20108;-76
2024/01/19 04:08:12;;;;;;;12.43;1.25;;;;;;;;;;5031876;28;20029;-76
2024/01/19 04:10:38;;;;;;;7.82;1.13;;;;;;;;;;5025173;28;20052;-76
2024/01/19 04:13:04;;;;;;;9.45;1.27;;;;;;;;;;5029623;28;20041;-76
2024/01/19 04:15:31;;;;;;;14.18;1.13;;;;;;;;;;5025263;28;20387;-76
2024/01/19 04:17:57;;;;;;;8.73;1.30;;;;;;;;;;5029002;28;20036;-77
2024/01/19 04:20:23;;;;;;;8.50;1.00;;;;;;;;;;5011954;28;20038;-76
2024/01/19 04:22:49;;;;;;;12.27;1.92;;;;;;;;;;5011589;28;20030;-77
2024/01/19 04:25:15;;;;;;;5.03;0.60;;;;;;;;;;5033088;28;20083;-76
2024/01/19 04:27:41;;;;;;;11.02;1.42;;;;;;;;;;5030211;28;20030;-77
2024/01/19 04:30:07;;;;;;;5.13;0.98;;;;;;;;;;5024789;28;20071;-77
2024/01/19 04:32:33;;;;;;;6.18;1.05;;;;;;;;;;5024635;28;20026;-77
2024/01/19 04:35:00;;;;;;;4.82;1.10;;;;;;;;;;5023215;28;20033;-76
2024/01/19 04:37:26;;;;;;;6.00;1.52;;;;;;;;;;5028231;28;20491;-76
2024/01/19 04:39:52;;;;;;;9.88;1.83;;;;;;;;;;5018752;28;20030;-76
2024/01/19 04:42:18;;;;;;;7.65;1.77;;;;;;;;;;5026508;28;20402;-77
2024/01/19 04:44:44;;;;;;;7.32;1.60;;;;;;;;;;5028329;28;20033;-76
2024/01/19 04:47:10;;;;;;;9.10;1.65;;;;;;;;;;5027246;28;20033;-77
2024/01/19 04:49:36;;;;;;;9.65;1.45;;;;;;;;;;5016710;28;20050;-77
2024/01/19 04:52:02;;;;;;;9.75;1.02;;;;;;;;;;5028146;28;20406;-77
2024/01/19 04:54:28;;;;;;;7.55;0.90;;;;;;;;;;5029381;28;20025;-77
2024/01/19 04:56:54;;;;;;;11.65;0.98;;;;;;;;;;5014833;28;20041;-77
2024/01/19 04:59:21;;;;;;;13.90;1.65;;;;;;;;;;5019971;28;20037;-77
2024/01/19 05:01:47;;;;;;;7.43;0.95;;;;;;;;;;5030642;28;20121;-78
2024/01/19 05:04:13;;;;;;;14.30;1.98;;;;;;;;;;5021602;28;20029;-77
2024/01/19 05:06:39;;;;;;;13.85;1.60;;;;;;;;;;5025166;28;20029;-77
2024/01/19 05:09:05;;;;;;;12.68;1.77;;;;;;;;;;5021371;28;20029;-75
2024/01/19 05:11:31;;;;;;;5.75;1.67;;;;;;;;;;5019515;28;20096;-76
2024/01/19 05:13:57;;;;;;;8.70;1.98;;;;;;;;;;5024644;28;20108;-76
2024/01/19 05:16:23;;;;;;;15.90;2.72;;;;;;;;;;5023772;28;20056;-76
2024/01/19 05:18:49;;;;;;;12.82;2.25;;;;;;;;;;5018540;28;20038;-77
2024/01/19 05:21:15;;;;;;;14.25;2.42;;;;;;;;;;5027683;28;20260;-77
2024/01/19 05:23:41;;;;;;;17.98;3.72;;;;;;;;;;5028781;28;20081;-85
2024/01/19 05:26:08;;;;;;;14.07;2.92;;;;;;;;;;5016093;28;20025;-81
2024/01/19 05:28:36;;;;;;;10.52;3.05;;;;;;;;;;5015007;28;20036;-77
2024/01/19 05:31:02;;;;;;;12.05;2.08;;;;;;;;;;5022473;28;20085;-77
2024/01/19 05:33:30;;;;;;;5.13;1.30;;;;;;;;;;5013463;28;20030;-75
2024/01/19 05:35:56;;;;;;;11.30;2.03;;;;;;;;;;5017401;28;20091;-77
2024/01/19 05:38:23;;;;;;;10.80;1.67;;;;;;;;;;5020949;28;20806;-77
2024/01/19 05:40:49;;;;;;;4.75;1.23;;;;;;;;;;5015949;28;20064;-77
2024/01/19 05:43:15;;;;;;;15.23;1.98;;;;;;;;;;5024401;28;20459;-75
2024/01/19 05:45:41;;;;;;;4.40;1.20;;;;;;;;;;5023319;28;20033;-76
2024/01/19 05:48:07;;;;;;;12.27;2.17;;;;;;;;;;5023235;28;20037;-77
2024/01/19 05:50:33;;;;;;;15.32;1.52;;;;;;;;;;5029339;28;20053;-83
2024/01/19 05:52:59;;;;;;;14.43;3.10;;;;;;;;;;5035215;28;20036;-85
2024/01/19 05:55:25;;;;;;;28.40;9.25;;;;;;;;;;5016305;28;20034;-79
2024/01/19 05:57:51;;;;;;;26.50;8.75;;;;;;;;;;5024629;28;20479;-80
2024/01/19 06:00:17;;;;;;;9.70;1.92;;;;;;;;;;5017761;28;20491;-78
2024/01/19 06:02:43;;;;;;;11.30;1.95;;;;;;;;;;5020361;28;20036;-76
2024/01/19 06:05:09;;;;;;;7.57;1.10;;;;;;;;;;5025221;28;20083;-77
2024/01/19 06:07:35;;;;;;;7.90;2.58;;;;;;;;;;5023631;28;20079;-78
2024/01/19 06:10:02;;;;;;;14.77;4.35;;;;;;;;;;5023241;28;20471;-78
2024/01/19 06:12:28;;;;;;;10.50;2.88;;;;;;;;;;5027920;28;20108;-78
2024/01/19 06:14:54;;;;;;;10.50;1.60;;;;;;;;;;5020540;28;20048;-77
2024/01/19 06:17:20;;;;;;;14.27;1.50;;;;;;;;;;5016398;28;20502;-78
2024/01/19 06:19:46;;;;;;;9.32;2.30;;;;;;;;;;5025283;28;20049;-78
2024/01/19 06:22:12;;;;;;;11.45;2.15;;;;;;;;;;5027411;28;20030;-77
2024/01/19 06:24:38;;;;;;;8.98;1.27;;;;;;;;;;5010909;28;20095;-76
2024/01/19 06:27:04;;;;;;;6.55;2.15;;;;;;;;;;5023140;28;20033;-77
2024/01/19 06:29:30;;;;;;;8.60;1.58;;;;;;;;;;5023988;28;20479;-77
2024/01/19 06:31:57;;;;;;;12.05;2.30;;;;;;;;;;5026264;28;20470;-77
2024/01/19 06:34:23;;;;;;;10.93;1.35;;;;;;;;;;5018434;28;20022;-78
2024/01/19 06:36:49;;;;;;;12.05;1.60;;;;;;;;;;5014322;28;20655;-77
2024/01/19 06:39:16;;;;;;;5.85;1.40;;;;;;;;;;5012429;28;20665;-77
2024/01/19 06:41:45;;;;;;;9.15;2.10;;;;;;;;;;5029014;28;20032;-77
2024/01/19 06:44:11;;;;;;;9.65;2.08;;;;;;;;;;5027241;28;20025;-77
2024/01/19 06:46:38;;;;;;;9.20;2.35;;;;;;;;;;5024579;28;20404;-77
2024/01/19 06:49:04;;;;;;;11.18;2.10;;;;;;;;;;5012772;28;20045;-77
2024/01/19 06:51:32;;;;;;;7.60;2.05;;;;;;;;;;5008988;28;20058;-77
2024/01/19 06:53:58;;;;;;;11.55;2.92;;;;;;;;;;5018205;28;20029;-77
2024/01/19 06:56:24;;;;;;;8.77;1.60;;;;;;;;;;5013800;28;20025;-77
2024/01/19 06:58:51;;;;;;;10.15;2.75;;;;;;;;;;5014721;28;20041;-77
2024/01/19 07:01:18;;;;;;;13.70;2.22;;;;;;;;;;5026105;28;20034;-77
2024/01/19 07:03:44;;;;;;;7.80;2.63;;;;;;;;;;5010700;28;20176;-77
2024/01/19 07:06:10;;;;;;;10.57;2.03;;;;;;;;;;5016932;28;20034;-77
2024/01/19 07:08:36;;;;;;;14.45;2.78;;;;;;;;;;5028220;28;20043;-78
2024/01/19 07:11:02;;;;;;;12.43;2.67;;;;;;;;;;5016060;28;20052;-78
2024/01/19 07:13:28;;;;;;;11.95;2.40;;;;;;;;;;5028956;28;20701;-77
2024/01/19 07:15:54;;;;;;;6.32;2.00;;;;;;;;;;5023172;28;20026;-77
2024/01/19 07:18:20;;;;;;;8.50;2.45;;;;;;;;;;5018214;28;20734;-77
2024/01/19 07:20:46;;;;;;;8.52;2.13;;;;;;;;;;5026713;28;20371;-77
2024/01/19 07:23:12;;;;;;;13.70;1.85;;;;;;;;;;5028829;28;20022;-77
2024/01/19 07:25:39;;;;;;;11.02;1.63;;;;;;;;;;5022543;28;20029;-77
2024/01/19 07:28:05;;;;;;;15.38;1.88;;;;;;;;;;5014352;28;20113;-77
2024/01/19 07:30:31;;;;;;;11.50;2.00;;;;;;;;;;5026842;28;20111;-76
2024/01/19 07:32:57;;;;;;;10.73;2.30;;;;;;;;;;5025662;28;20065;-76
2024/01/19 07:35:24;;;;;;;13.65;2.00;;;;;;;;;;5022816;28;20029;-76
2024/01/19 07:37:50;;;;;;;10.25;1.75;;;;;;;;;;5023640;28;20510;-76
2024/01/19 07:40:16;;;;;;;10.32;2.33;;;;;;;;;;5031818;28;20798;-76
2024/01/19 07:42:42;;;;;;;10.60;2.45;;;;;;;;;;5020253;28;20053;-76
2024/01/19 07:45:08;;;;;;;9.82;2.38;;;;;;;;;;5033959;28;20025;-78
2024/01/19 07:47:34;;;;;;;10.57;1.77;;;;;;;;;;5024522;28;20092;-77
2024/01/19 07:50:00;;;;;;;14.63;1.92;;;;;;;;;;5028316;28;20060;-77
2024/01/19 07:52:26;;;;;;;12.95;1.85;;;;;;;;;;5019322;28;20033;-76
2024/01/19 07:54:52;;;;;;;16.08;2.92;;;;;;;;;;5026016;28;20060;-75
2024/01/19 07:57:18;;;;;;;16.80;2.20;;;;;;;;;;5024930;28;20084;-74
2024/01/19 07:59:44;;;;;;;16.27;3.30;;;;;;;;;;5019048;28;20036;-73
2024/01/19 08:02:10;;;;;;;12.85;2.10;;;;;;;;;;5038864;28;20034;-77
2024/01/19 08:04:38;;;;;;;15.27;3.67;;;;;;;;;;5028783;28;20442;-75
2024/01/19 08:07:04;;;;;;;13.15;2.75;;;;;;;;;;5034432;28;20032;-75
2024/01/19 08:09:30;;;;;;;9.35;1.50;;;;;;;;;;5029174;28;20028;-77
2024/01/19 08:11:56;;;;;;;11.15;2.05;;;;;;;;;;5027304;28;20041;-79
2024/01/19 08:14:23;;;;;;;18.30;4.80;;;;;;;;;;5027915;28;20029;-78
2024/01/19 08:16:49;;;;;;;12.35;1.58;;;;;;;;;;5025330;28;20773;-77
2024/01/19 08:19:16;;;;;;;49.15;21.02;;;;;;;;;;5032655;28;20096;-74
2024/01/19 08:21:42;;;;;;;18.92;4.07;;;;;;;;;;5031408;28;20064;-73
2024/01/19 08:24:09;;;;;;;26.60;6.32;;;;;;;;;;5026102;28;20026;-79
2024/01/19 08:26:35;;;;;;;8.70;1.52;;;;;;;;;;5022394;28;20113;-74
2024/01/19 08:29:01;;;;;;;8.13;1.73;;;;;;;;;;5021757;28;20379;-75
2024/01/19 08:31:27;;;;;;;10.30;2.05;;;;;;;;;;5025768;28;20025;-75
2024/01/19 08:33:53;;;;;;;13.98;1.80;;;;;;;;;;5025406;28;20033;-74
2024/01/19 08:36:23;;;;;;;10.02;2.97;;;;;;;;;;5034332;28;20037;-74
2024/01/19 08:38:50;;;;;;;11.93;2.17;;;;;;;;;;5029839;28;20452;-74
2024/01/19 08:41:16;;;;;;;9.65;1.48;;;;;;;;;;5015625;28;20041;-75
2024/01/19 08:43:42;;;;;;;13.38;1.60;;;;;;;;;;5022883;28;20458;-74
2024/01/19 08:46:08;;;;;;;23.45;2.80;;;;;;;;;;5023532;28;20038;-75
2024/01/19 08:48:34;;;;;;;11.07;1.85;;;;;;;;;;5018671;28;20039;-74
2024/01/19 08:51:03;;;;;;;12.60;2.40;;;;;;;;;;5025503;28;20048;-75
2024/01/19 08:53:30;;;;;;;8.25;2.25;;;;;;;;;;5020837;28;20057;-75
2024/01/19 08:55:56;;;;;;;18.45;1.77;;;;;;;;;;5023972;28;20191;-75
2024/01/19 08:58:22;;;;;;;12.13;1.67;;;;;;;;;;5021127;28;20443;-74
2024/01/19 09:00:48;;;;;;;8.75;2.92;;;;;;;;;;5023439;28;20033;-76
2024/01/19 09:03:15;;;;;;;18.77;4.93;;;;;;;;;;5019032;28;20407;-75
2024/01/19 09:05:41;;;;;;;17.52;3.30;;;;;;;;;;5013356;28;20137;-74
2024/01/19 09:08:07;;;;;;;17.42;2.97;;;;;;;;;;5027221;28;20043;-72
2024/01/19 09:10:34;;;;;;;12.70;2.55;;;;;;;;;;5017382;28;20045;-76
2024/01/19 09:13:00;;;;;;;13.43;1.73;;;;;;;;;;5026166;28;20025;-75
2024/01/19 09:15:26;;;;;;;11.32;2.13;;;;;;;;;;5021302;28;20033;-77
2024/01/19 09:17:52;;;;;;;13.15;3.15;;;;;;;;;;5030170;28;20037;-77
2024/01/19 09:20:18;;;;;;;15.18;2.05;;;;;;;;;;5030296;28;20029;-76
2024/01/19 09:22:44;;;;;;;8.60;2.03;;;;;;;;;;5039972;28;20037;-76
2024/01/19 09:25:12;;;;;;;9.63;2.00;;;;;;;;;;5050277;28;20028;-76
2024/01/19 09:27:40;;;;;;;11.90;2.00;;;;;;;;;;5028394;28;20391;-76
2024/01/19 09:30:06;;;;;;;16.45;2.58;;;;;;;;;;5018897;28;20099;-76
2024/01/19 09:32:32;;;;;;;14.80;2.00;;;;;;;;;;5018200;28;20147;-76
2024/01/19 09:34:58;;;;;;;16.75;1.88;;;;;;;;;;5030158;28;20029;-76
2024/01/19 09:37:24;;;;;;;13.57;2.58;;;;;;;;;;5026013;28;20421;-76
2024/01/19 09:39:50;;;;;;;10.02;2.30;;;;;;;;;;5030152;28;20063;-76
2024/01/19 09:42:32;;;;;;;13.32;2.58;;;;;;;;;;5023429;28;20048;-76
2024/01/19 09:45:02;;;;;;;15.00;2.10;;;;;;;;;;5032195;28;20034;-78
2024/01/19 09:47:31;;;;;;;11.45;2.03;;;;;;;;;;5021948;28;20036;-76
2024/01/19 09:49:57;;;;;;;12.40;2.20;;;;;;;;;;5029600;28;20103;-76
2024/01/19 09:52:45;;;;;;;9.65;2.67;;;;;;;;;;5026710;28;20048;-76
2024/01/19 09:55:11;;;;;;;11.73;2.08;;;;;;;;;;5014176;28;20435;-76
2024/01/19 09:57:45;;;;;;;20.15;3.45;;;;;;;;;;5029658;28;20026;-76
2024/01/19 10:00:15;;;;;;;8.00;1.98;;;;;;;;;;5027168;28;20045;-76
2024/01/19 10:02:45;;;;;;;15.10;2.00;;;;;;;;;;5019898;28;20029;-76
2024/01/19 10:05:14;;;;;;;10.13;2.30;;;;;;;;;;5029122;28;20029;-76
2024/01/19 10:07:41;;;;;;;10.82;2.97;;;;;;;;;;5021605;28;20479;-76
2024/01/19 10:10:08;;;;;;;12.82;2.20;;;;;;;;;;5028385;28;20056;-76
2024/01/19 10:12:35;;;;;;;9.23;1.75;;;;;;;;;;5025982;28;20124;-76
2024/01/19 10:15:02;;;;;;;16.23;1.63;;;;;;;;;;5009737;28;20018;-76
2024/01/19 10:17:29;;;;;;;11.88;1.58;;;;;;;;;;5028453;28;20045;-76
2024/01/19 10:19:56;;;;;;;18.45;1.75;;;;;;;;;;5018373;28;20025;-75
2024/01/19 10:22:26;;;;;;;10.70;1.70;;;;;;;;;;5013308;28;20468;-76
2024/01/19 10:25:05;;;;;;;16.48;2.10;;;;;;;;;;5024792;28;20091;-75
2024/01/19 10:27:44;;;;;;;17.75;1.67;;;;;;;;;;5022973;28;20124;-75
2024/01/19 10:30:10;;;;;;;21.42;2.58;;;;;;;;;;5012065;28;20068;-75
2024/01/19 10:32:37;;;;;;;12.68;2.08;;;;;;;;;;5028073;28;20085;-76
2024/01/19 10:35:04;;;;;;;7.75;1.55;;;;;;;;;;5014463;28;20151;-76
2024/01/19 10:37:30;;;;;;;10.82;2.03;;;;;;;;;;5010053;28;20443;-75
2024/01/19 10:39:56;;;;;;;14.20;1.30;;;;;;;;;;5021623;28;20034;-74
2024/01/19 10:42:22;;;;;;;18.15;2.75;;;;;;;;;;5012798;28;20022;-74
2024/01/19 10:44:48;;;;;;;11.95;2.55;;;;;;;;;;5012210;28;20391;-74
2024/01/19 10:47:14;;;;;;;17.65;2.60;;;;;;;;;;5012368;28;20368;-74
2024/01/19 10:49:40;;;;;;;9.02;2.10;;;;;;;;;;5020632;28;20056;-74
2024/01/19 10:52:06;;;;;;;11.63;2.03;;;;;;;;;;5017780;28;20128;-74
2024/01/19 10:54:32;;;;;;;9.38;1.77;;;;;;;;;;5024266;28;20032;-78
2024/01/19 10:57:05;;;;;;;13.70;3.03;;;;;;;;;;5027919;28;20682;-78
2024/01/19 10:59:32;;;;;;;9.98;2.03;;;;;;;;;;5023490;28;20039;-76
2024/01/19 11:01:59;;;;;;;10.52;1.30;;;;;;;;;;5018312;28;20036;-74
2024/01/19 11:04:25;;;;;;;11.70;2.28;;;;;;;;;;5007834;28;20033;-74
2024/01/19 11:06:51;;;;;;;6.22;1.40;;;;;;;;;;5023559;28;20033;-74
2024/01/19 11:09:17;;;;;;;12.35;3.10;;;;;;;;;;5025216;28;20037;-74
2024/01/19 11:11:54;;;;;;;12.18;1.60;;;;;;;;;;5023098;28;20041;-73
2024/01/19 11:14:22;;;;;;;13.38;1.80;;;;;;;;;;5018510;28;20672;-75
2024/01/19 11:16:49;;;;;;;14.95;2.22;;;;;;;;;;5023810;28;20112;-76
2024/01/19 11:19:17;;;;;;;11.18;1.65;;;;;;;;;;5018515;28;20049;-75
2024/01/19 11:21:44;;;;;;;11.88;2.00;;;;;;;;;;5018817;28;20029;-75
2024/01/19 11:27:03;;;;;;;13.98;2.80;;;;;;;;;;5492158;23;20066;-72
2024/01/19 11:29:34;;;;;;;15.95;1.88;;;;;;;;;;4997669;28;20053;-75
2024/01/19 11:32:00;;;;;;;5.57;1.20;;;;;;;;;;5011333;28;20042;-74
2024/01/19 11:34:41;;;;;;;11.20;2.25;;;;;;;;;;5003287;28;20149;-75
2024/01/19 11:37:08;;;;;;;9.48;1.48;;;;;;;;;;5007677;28;20026;-74
2024/01/19 11:39:38;;;;;;;8.45;2.08;;;;;;;;;;5006832;28;20076;-75
2024/01/19 11:42:04;;;;;;;8.98;1.73;;;;;;;;;;5007877;28;20037;-75
2024/01/19 11:44:42;;;;;;;4.90;1.40;;;;;;;;;;5007625;28;20041;-76
2024/01/19 11:47:08;;;;;;;7.38;1.10;;;;;;;;;;5014620;28;20075;-75
2024/01/19 11:49:38;;;;;;;11.35;1.58;;;;;;;;;;4999202;28;20022;-76
2024/01/19 11:52:24;;;;;;;8.77;1.45;;;;;;;;;;5005721;28;20198;-74
2024/01/19 11:54:50;;;;;;;9.68;1.35;;;;;;;;;;5001297;28;20091;-74
2024/01/19 11:57:20;;;;;;;9.00;4.10;;;;;;;;;;5006047;28;20029;-75
2024/01/19 11:59:47;;;;;;;8.73;1.60;;;;;;;;;;5013043;28;20801;-73
2024/01/19 12:02:22;;;;;;;8.40;1.50;;;;;;;;;;5021231;28;20038;-74
2024/01/19 12:04:49;;;;;;;17.35;2.30;;;;;;;;;;5010454;28;20088;-76
2024/01/19 12:07:18;;;;;;;9.50;1.33;;;;;;;;;;5003844;28;20115;-75
2024/01/19 12:09:44;;;;;;;11.75;2.08;;;;;;;;;;5007346;28;20106;-76
2024/01/19 12:12:10;;;;;;;11.27;2.25;;;;;;;;;;5020138;28;20044;-75
2024/01/19 12:14:36;;;;;;;6.80;1.38;;;;;;;;;;5007369;28;20041;-75
2024/01/19 12:17:03;;;;;;;6.65;1.05;;;;;;;;;;5030239;28;20398;-75
2024/01/19 12:19:29;;;;;;;6.38;1.35;;;;;;;;;;5005382;28;20110;-75
2024/01/19 12:21:58;;;;;;;9.75;1.52;;;;;;;;;;5006589;28;20482;-75
2024/01/19 12:24:24;;;;;;;12.93;2.03;;;;;;;;;;5011410;28;20030;-74
2024/01/19 12:26:50;;;;;;;10.32;1.58;;;;;;;;;;5009948;28;20505;-74
2024/01/19 12:29:32;;;;;;;12.77;2.65;;;;;;;;;;5009569;28;20041;-74
2024/01/19 12:32:10;;;;;;;9.35;1.83;;;;;;;;;;5026214;28;20037;-74
2024/01/19 12:34:36;;;;;;;8.95;1.48;;;;;;;;;;5020078;28;20030;-74
2024/01/19 12:37:02;;;;;;;12.93;2.55;;;;;;;;;;5011720;28;20030;-74
2024/01/19 12:39:29;;;;;;;5.03;2.20;;;;;;;;;;5010405;28;20566;-75
2024/01/19 12:42:02;;;;;;;10.95;3.40;;;;;;;;;;5006282;28;20049;-75
2024/01/19 12:44:28;;;;;;;6.90;1.30;;;;;;;;;;5010150;28;20084;-75
2024/01/19 12:46:58;;;;;;;9.35;1.30;;;;;;;;;;5025520;28;20108;-75
2024/01/19 12:49:24;;;;;;;10.98;1.90;;;;;;;;;;5025065;28;20471;-75
2024/01/19 12:51:50;;;;;;;8.68;0.90;;;;;;;;;;5000917;28;20081;-75
2024/01/19 12:54:18;;;;;;;7.97;1.67;;;;;;;;;;4993246;28;20034;-75
2024/01/19 12:56:44;;;;;;;8.68;1.60;;;;;;;;;;5004734;28;20029;-75
2024/01/19 12:59:16;;;;;;;9.05;2.38;;;;;;;;;;5011100;28;20395;-75
2024/01/19 13:01:42;;;;;;;6.57;1.42;;;;;;;;;;5005941;28;20026;-75
2024/01/19 13:04:09;;;;;;;7.13;1.00;;;;;;;;;;4997731;28;20026;-75
2024/01/19 13:06:41;;;;;;;12.35;1.40;;;;;;;;;;5033654;28;20522;-75
2024/01/19 13:09:09;;;;;;;;;;;;;;;;;;4996522;28;20026;-74
2024/01/19 13:11:35;;;;;;;7.45;1.00;;;;;;;;;;4991436;28;20012;-75
2024/01/19 13:14:04;;;;;;;10.25;1.33;;;;;;;;;;5004411;28;20030;-74
2024/01/19 13:16:30;;;;;;;13.00;1.08;;;;;;;;;;5010529;28;20037;-74
2024/01/19 13:19:00;;;;;;;5.63;0.95;;;;;;;;;;5007161;28;20033;-74
2024/01/19 13:21:26;;;;;;;11.02;1.15;;;;;;;;;;5006887;28;20042;-75
2024/01/19 13:23:52;;;;;;;5.43;0.80;;;;;;;;;;5003458;28;20538;-74
2024/01/19 13:26:19;;;;;;;6.70;1.08;;;;;;;;;;5010846;28;20423;-74
2024/01/19 13:28:46;;;;;;;7.63;1.33;;;;;;;;;;4990438;28;20022;-74
2024/01/19 13:31:14;;;;;;;9.93;1.30;;;;;;;;;;5001444;28;20042;-74
2024/01/19 13:33:42;;;;;;;10.05;1.38;;;;;;;;;;5010314;28;20026;-74
2024/01/19 13:36:08;;;;;;;6.63;1.33;;;;;;;;;;5015466;28;20421;-74
2024/01/19 13:38:34;;;;;;;7.07;1.40;;;;;;;;;;5023479;28;20034;-74
2024/01/19 13:41:00;;;;;;;8.23;2.08;;;;;;;;;;5008831;28;20030;-74
2024/01/19 13:43:26;;;;;;;8.75;1.50;;;;;;;;;;5010434;28;20030;-74
2024/01/19 13:45:52;;;;;;;9.38;1.50;;;;;;;;;;5014328;28;20498;-74
2024/01/19 13:48:18;;;;;;;10.77;2.25;;;;;;;;;;5029148;28;20405;-74
2024/01/19 13:50:45;;;;;;;11.25;1.80;;;;;;;;;;5011657;28;20461;-74
2024/01/19 13:53:11;;;;;;;9.10;1.70;;;;;;;;;;5009298;28;20030;-74
2024/01/19 13:55:37;;;;;;;12.55;2.70;;;;;;;;;;5010049;28;20049;-75
2024/01/19 13:58:03;;;;;;;10.70;2.75;;;;;;;;;;5007660;28;20034;-74
2024/01/19 14:00:29;;;;;;;9.40;2.25;;;;;;;;;;5011055;28;20148;-74
2024/01/19 14:02:57;;;;;;;7.95;1.20;;;;;;;;;;5006866;28;20057;-74
2024/01/19 14:05:23;;;;;;;12.23;1.88;;;;;;;;;;5003725;28;20076;-73
2024/01/19 14:07:50;;;;;;;13.32;2.55;;;;;;;;;;4999814;28;20030;-74
2024/01/19 14:10:16;;;;;;;7.18;1.65;;;;;;;;;;5000488;28;20109;-73
2024/01/19 14:12:43;;;;;;;13.60;2.15;;;;;;;;;;5002855;28;20034;-74
2024/01/19 14:15:10;;;;;;;9.77;2.20;;;;;;;;;;5002051;28;20102;-74
2024/01/19 14:17:36;;;;;;;9.27;1.80;;;;;;;;;;4998113;28;20026;-73
2024/01/19 14:20:02;;;;;;;11.40;2.30;;;;;;;;;;5005241;28;20754;-74
2024/01/19 14:22:28;;;;;;;13.00;3.88;;;;;;;;;;5007816;28;20387;-72
2024/01/19 14:24:54;;;;;;;10.82;1.92;;;;;;;;;;5008510;28;20030;-75
2024/01/19 14:27:20;;;;;;;8.60;2.53;;;;;;;;;;5008305;28;20469;-74
2024/01/19 14:29:48;;;;;;;22.42;2.67;;;;;;;;;;4997767;28;20041;-74
2024/01/19 14:32:15;;;;;;;13.63;2.05;;;;;;;;;;5001732;28;20089;-74
2024/01/19 14:34:42;;;;;;;11.15;2.28;;;;;;;;;;5000039;28;20121;-74
2024/01/19 14:37:10;;;;;;;7.40;2.55;;;;;;;;;;5003567;28;20077;-74
2024/01/19 14:39:38;;;;;;;15.40;2.80;;;;;;;;;;5002815;28;20032;-74